createdAt,value
2022-09-28T00:02:04.553Z,100295.63
2022-09-28T00:04:36.811Z,100296.78
2022-09-28T00:07:06.079Z,100302.88
2022-09-28T00:09:33.878Z,100286.94
2022-09-28T00:12:05.826Z,100294.13
2022-09-28T00:14:34.146Z,100294.53
2022-09-28T00:17:02.034Z,100293.13
2022-09-28T00:19:33.918Z,100288.50
2022-09-28T00:22:01.764Z,100281.06
2022-09-28T00:24:31.018Z,100291.13
2022-09-28T00:27:04.428Z,100280.88
2022-09-28T00:29:33.786Z,100296.53
2022-09-28T00:32:05.321Z,100293.91
2022-09-28T00:34:36.136Z,100291.91
2022-09-28T00:37:05.975Z,100296.16
2022-09-28T00:39:40.554Z,100292.41
2022-09-28T00:42:14.523Z,100288.31
2022-09-28T00:44:51.107Z,100296.41
2022-09-28T00:47:49.818Z,100289.50
2022-09-28T00:50:29.971Z,100277.09
2022-09-28T00:53:03.300Z,100288.31
2022-09-28T00:55:41.334Z,100287.50
2022-09-28T00:58:12.457Z,100287.88
2022-09-28T01:00:44.679Z,100284.88
2022-09-28T01:03:14.262Z,100281.69
2022-09-28T01:05:42.772Z,100282.50
2022-09-28T01:08:16.154Z,100288.69
2022-09-28T01:10:45.386Z,100286.94
2022-09-28T01:13:17.094Z,100290.06
2022-09-28T01:16:02.622Z,100290.91
2022-09-28T01:18:41.501Z,100287.34
2022-09-28T01:21:18.893Z,100288.56
2022-09-28T01:24:20.520Z,100293.84
2022-09-28T01:27:11.674Z,100287.69
2022-09-28T01:29:47.788Z,100289.16
2022-09-28T01:32:23.796Z,100286.53
2022-09-28T01:34:59.057Z,100290.31
2022-09-28T01:37:35.190Z,100281.53
2022-09-28T01:40:08.442Z,100282.44
2022-09-28T01:42:41.183Z,100284.72
2022-09-28T01:45:16.075Z,100293.34
2022-09-28T01:47:48.632Z,100289.16
2022-09-28T01:50:22.106Z,100291.28
2022-09-28T01:52:55.160Z,100289.97
2022-09-28T01:55:31.769Z,100294.19
2022-09-28T01:58:06.392Z,100288.91
2022-09-28T02:00:36.618Z,100295.06
2022-09-28T02:03:12.979Z,100294.00
2022-09-28T02:05:46.783Z,100289.19
2022-09-28T02:08:25.163Z,100291.66
2022-09-28T02:10:59.654Z,100297.47
2022-09-28T02:13:35.082Z,100299.38
2022-09-28T02:16:10.242Z,100294.44
2022-09-28T02:18:40.276Z,100297.63
2022-09-28T02:21:14.297Z,100292.47
2022-09-28T02:23:53.093Z,100291.72
2022-09-28T02:26:25.912Z,100291.03
2022-09-28T02:28:57.193Z,100289.47
2022-09-28T02:31:27.920Z,100293.28
2022-09-28T02:33:59.993Z,100297.19
2022-09-28T02:36:31.132Z,100290.88
2022-09-28T02:39:04.110Z,100288.28
2022-09-28T02:41:49.655Z,100292.31
2022-09-28T02:44:37.527Z,100290.59
2022-09-28T02:47:18.331Z,100294.16
2022-09-28T02:49:56.570Z,100297.63
2022-09-28T02:52:47.414Z,100297.63
2022-09-28T02:55:27.091Z,100293.66
2022-09-28T02:58:15.656Z,100303.44
2022-09-28T03:00:54.764Z,100299.22
2022-09-28T03:03:32.628Z,100302.59
2022-09-28T03:06:07.580Z,100302.38
2022-09-28T03:08:40.742Z,100297.84
2022-09-28T03:11:17.892Z,100304.56
2022-09-28T03:13:46.358Z,100311.31
2022-09-28T03:16:21.753Z,100303.22
2022-09-28T03:18:49.691Z,100308.34
2022-09-28T03:21:19.744Z,100299.53
2022-09-28T03:23:50.284Z,100298.94
2022-09-28T03:26:18.078Z,100296.94
2022-09-28T03:28:48.006Z,100297.03
2022-09-28T03:31:17.423Z,100291.56
2022-09-28T03:33:45.250Z,100293.25
2022-09-28T03:36:15.048Z,100278.25
2022-09-28T03:38:44.829Z,100292.84
2022-09-28T03:41:14.802Z,100290.22
2022-09-28T03:43:42.566Z,100291.69
2022-09-28T03:46:12.427Z,100287.19
2022-09-28T03:48:43.669Z,100304.25
2022-09-28T03:51:12.302Z,100292.81
2022-09-28T03:53:43.079Z,100289.34
2022-09-28T03:56:17.470Z,100292.81
2022-09-28T03:58:47.163Z,100298.06
2022-09-28T04:01:17.928Z,100294.81
2022-09-28T04:03:56.719Z,100296.38
2022-09-28T04:06:25.064Z,100281.69
2022-09-28T04:08:55.317Z,100292.31
2022-09-28T04:11:30.040Z,100297.84
2022-09-28T04:14:02.886Z,100286.94
2022-09-28T04:16:35.540Z,100286.84
2022-09-28T04:19:05.497Z,100288.41
2022-09-28T04:21:37.721Z,100293.97
2022-09-28T04:24:05.972Z,100298.50
2022-09-28T04:26:33.784Z,100286.34
2022-09-28T04:29:18.110Z,100307.75
2022-09-28T04:31:48.561Z,100299.78
2022-09-28T04:34:22.161Z,100300.63
2022-09-28T04:36:50.247Z,100309.34
2022-09-28T04:39:19.646Z,100301.34
2022-09-28T04:41:52.040Z,100305.69
2022-09-28T04:44:19.934Z,100305.06
2022-09-28T04:46:47.721Z,100302.50
2022-09-28T04:49:20.877Z,100295.81
2022-09-28T04:51:48.661Z,100303.06
2022-09-28T04:54:16.518Z,100294.22
2022-09-28T04:56:48.380Z,100309.88
2022-09-28T04:59:16.413Z,100307.75
2022-09-28T05:01:44.657Z,100297.03
2022-09-28T05:04:16.541Z,100299.56
2022-09-28T05:06:45.773Z,100309.22
2022-09-28T05:09:13.723Z,100286.53
2022-09-28T05:11:45.653Z,100300.91
2022-09-28T05:14:13.567Z,100302.06
2022-09-28T05:16:41.521Z,100302.25
2022-09-28T05:19:13.704Z,100302.19
2022-09-28T05:21:44.119Z,100307.41
2022-09-28T05:24:15.975Z,100307.50
2022-09-28T05:26:43.949Z,100309.28
2022-09-28T05:29:11.893Z,100299.97
2022-09-28T05:31:42.022Z,100306.88
2022-09-28T05:34:10.122Z,100305.22
2022-09-28T05:36:39.225Z,100301.41
2022-09-28T05:39:11.908Z,100309.84
2022-09-28T05:41:41.724Z,100302.72
2022-09-28T05:44:09.861Z,100290.03
2022-09-28T05:46:41.680Z,100311.84
2022-09-28T05:49:09.791Z,100298.94
2022-09-28T05:51:39.238Z,100307.75
2022-09-28T05:54:11.894Z,100313.00
2022-09-28T05:56:41.438Z,100321.41
2022-09-28T05:59:09.359Z,100325.50
2022-09-28T06:01:39.436Z,100318.34
2022-09-28T06:04:07.942Z,100320.13
2022-09-28T06:06:36.673Z,100311.63
2022-09-28T06:09:08.770Z,100328.31
2022-09-28T06:11:36.618Z,100325.69
2022-09-28T06:14:07.845Z,100324.66
2022-09-28T06:16:41.737Z,100325.81
2022-09-28T06:19:13.288Z,100339.03
2022-09-28T06:21:41.959Z,100325.38
2022-09-28T06:24:11.205Z,100330.13
2022-09-28T06:26:39.114Z,100322.03
2022-09-28T06:29:08.709Z,100315.94
2022-09-28T06:31:36.614Z,100325.56
2022-09-28T06:34:04.447Z,100326.91
2022-09-28T06:36:34.598Z,100331.00
2022-09-28T06:39:02.427Z,100324.91
2022-09-28T06:41:30.388Z,100327.47
2022-09-28T06:44:02.586Z,100334.69
2022-09-28T06:46:31.941Z,100340.44
2022-09-28T06:48:59.925Z,100340.03
2022-09-28T06:51:32.112Z,100336.69
2022-09-28T06:53:59.998Z,100324.41
2022-09-28T06:56:32.587Z,100336.44
2022-09-28T06:59:05.135Z,100338.34
2022-09-28T07:01:34.687Z,100338.25
2022-09-28T07:04:03.224Z,100348.94
2022-09-28T07:06:35.314Z,100343.28
2022-09-28T07:09:25.865Z,100333.84
2022-09-28T07:11:58.320Z,100333.38
2022-09-28T07:14:44.558Z,100335.06
2022-09-28T07:17:19.877Z,100346.03
2022-09-28T07:19:52.728Z,100341.66
2022-09-28T07:22:37.299Z,100335.56
2022-09-28T07:25:10.379Z,100339.53
2022-09-28T07:27:38.337Z,100341.34
2022-09-28T07:30:07.116Z,100342.09
2022-09-28T07:32:37.572Z,100342.72
2022-09-28T07:35:11.411Z,100339.34
2022-09-28T07:37:39.452Z,100343.31
2022-09-28T07:40:28.331Z,100348.13
2022-09-28T07:42:56.278Z,100341.53
2022-09-28T07:45:26.411Z,100335.09
2022-09-28T07:47:57.491Z,100341.47
2022-09-28T07:50:25.346Z,100335.03
2022-09-28T07:52:53.324Z,100337.06
2022-09-28T07:55:23.666Z,100336.00
2022-09-28T07:58:01.196Z,100324.84
2022-09-28T08:00:34.129Z,100325.78
2022-09-28T08:03:06.117Z,100339.22
2022-09-28T08:05:36.013Z,100338.38
2022-09-28T08:08:04.174Z,100333.47
2022-09-28T08:10:32.099Z,100330.47
2022-09-28T08:13:06.519Z,100337.38
2022-09-28T08:15:38.658Z,100354.22
2022-09-28T08:18:10.315Z,100337.91
2022-09-28T08:20:55.971Z,100354.69
2022-09-28T08:23:28.112Z,100345.19
2022-09-28T08:25:56.160Z,100344.06
2022-09-28T08:28:25.969Z,100347.78
2022-09-28T08:30:56.163Z,100349.91
2022-09-28T08:33:25.560Z,100337.50
2022-09-28T08:35:58.653Z,100335.88
2022-09-28T08:38:27.208Z,100347.16
2022-09-28T08:41:06.583Z,100347.88
2022-09-28T08:43:52.569Z,100349.72
2022-09-28T08:46:27.002Z,100351.34
2022-09-28T08:49:24.072Z,100353.69
2022-09-28T08:52:01.917Z,100355.94
2022-09-28T08:54:38.393Z,100368.53
2022-09-28T08:57:15.529Z,100356.44
2022-09-28T08:59:49.383Z,100351.19
2022-09-28T09:02:27.416Z,100352.50
2022-09-28T09:04:57.565Z,100350.59
2022-09-28T09:08:04.146Z,100360.75
2022-09-28T09:10:42.772Z,100354.78
2022-09-28T09:13:33.323Z,100353.56
2022-09-28T09:16:06.121Z,100370.06
2022-09-28T09:18:40.410Z,100360.59
2022-09-28T09:21:16.124Z,100369.13
2022-09-28T09:23:57.021Z,100359.28
2022-09-28T09:26:38.655Z,100371.94
2022-09-28T09:29:24.376Z,100372.94
2022-09-28T09:32:07.378Z,100375.44
2022-09-28T09:34:52.638Z,100371.50
2022-09-28T09:37:36.769Z,100380.97
2022-09-28T09:40:19.437Z,100368.50
2022-09-28T09:43:02.692Z,100358.69
2022-09-28T09:45:47.244Z,100360.00
2022-09-28T09:48:21.262Z,100378.69
2022-09-28T09:50:57.514Z,100366.97
2022-09-28T09:53:36.109Z,100369.59
2022-09-28T09:56:14.366Z,100365.75
2022-09-28T09:58:48.025Z,100377.22
2022-09-28T10:01:23.782Z,100371.50
2022-09-28T10:03:53.073Z,100385.75
2022-09-28T10:06:28.615Z,100378.09
2022-09-28T10:09:05.107Z,100383.69
2022-09-28T10:11:40.121Z,100397.44
2022-09-28T10:14:09.776Z,100380.63
2022-09-28T10:16:39.923Z,100384.72
2022-09-28T10:19:10.956Z,100380.34
2022-09-28T10:21:41.113Z,100373.50
2022-09-28T10:24:18.555Z,100384.59
2022-09-28T10:26:50.872Z,100382.00
2022-09-28T10:29:22.956Z,100377.88
2022-09-28T10:31:51.863Z,100375.19
2022-09-28T10:34:28.160Z,100378.88
2022-09-28T10:37:00.722Z,100376.13
2022-09-28T10:39:41.168Z,100369.59
2022-09-28T10:42:12.608Z,100369.00
2022-09-28T10:44:54.923Z,100375.56
2022-09-28T10:47:25.713Z,100375.53
2022-09-28T10:49:55.915Z,100377.34
2022-09-28T10:52:33.406Z,100366.75
2022-09-28T10:55:03.156Z,100351.25
2022-09-28T10:57:35.709Z,100355.84
2022-09-28T11:00:06.467Z,100358.81
2022-09-28T11:02:37.244Z,100358.59
2022-09-28T11:05:08.179Z,100361.38
2022-09-28T11:07:47.133Z,100372.03
2022-09-28T11:10:23.052Z,100365.19
2022-09-28T11:12:52.155Z,100367.38
2022-09-28T11:15:22.649Z,100368.94
2022-09-28T11:17:50.337Z,100373.19
2022-09-28T11:20:36.034Z,100369.28
2022-09-28T11:23:22.773Z,100366.94
2022-09-28T11:26:03.801Z,100351.59
2022-09-28T11:28:37.685Z,100355.63
2022-09-28T11:31:09.228Z,100359.47
2022-09-28T11:33:41.096Z,100365.19
2022-09-28T11:36:28.254Z,100361.91
2022-09-28T11:39:08.889Z,100351.72
2022-09-28T11:41:57.798Z,100352.94
2022-09-28T11:44:41.116Z,100330.13
2022-09-28T11:47:28.683Z,100335.84
2022-09-28T11:50:03.232Z,100328.47
2022-09-28T11:52:40.859Z,100339.50
2022-09-28T11:55:16.733Z,100340.16
2022-09-28T11:57:51.566Z,100345.22
2022-09-28T12:00:22.497Z,100328.16
2022-09-28T12:02:56.336Z,100338.13
2022-09-28T12:05:29.508Z,100331.31
2022-09-28T12:08:17.037Z,100345.56
2022-09-28T12:10:52.650Z,100347.81
2022-09-28T12:13:27.506Z,100335.84
2022-09-28T12:16:38.779Z,100341.97
2022-09-28T12:18:54.582Z,100345.31
2022-09-28T12:21:37.515Z,100341.88
2022-09-28T12:24:13.614Z,100344.22
2022-09-28T12:26:48.562Z,100345.56
2022-09-28T12:29:24.470Z,100339.09
2022-09-28T12:31:59.612Z,100344.41
2022-09-28T12:34:27.630Z,100331.19
2022-09-28T12:37:17.293Z,100341.53
2022-09-28T12:39:59.803Z,100334.31
2022-09-28T12:42:49.261Z,100330.38
2022-09-28T12:45:28.819Z,100323.03
2022-09-28T12:48:17.224Z,100324.63
2022-09-28T12:50:57.489Z,100322.00
2022-09-28T12:53:47.582Z,100335.13
2022-09-28T12:56:39.416Z,100334.06
2022-09-28T12:59:21.872Z,100322.28
2022-09-28T13:02:12.653Z,100329.84
2022-09-28T13:04:58.052Z,100327.22
2022-09-28T13:07:35.479Z,100319.31
2022-09-28T13:10:19.627Z,100317.31
2022-09-28T13:13:04.655Z,100319.47
2022-09-28T13:15:46.069Z,100333.25
2022-09-28T13:18:23.439Z,100318.78
2022-09-28T13:21:08.942Z,100317.41
2022-09-28T13:23:41.451Z,100307.72
2022-09-28T13:26:18.057Z,100307.59
2022-09-28T13:28:50.283Z,100322.75
2022-09-28T13:31:21.921Z,100322.28
2022-09-28T13:33:51.184Z,100323.97
2022-09-28T13:36:43.468Z,100319.13
2022-09-28T13:39:37.029Z,100322.44
2022-09-28T13:42:09.558Z,100307.06
2022-09-28T13:44:50.637Z,100312.63
2022-09-28T13:47:35.531Z,100303.25
2022-09-28T13:50:19.433Z,100301.22
2022-09-28T13:52:51.241Z,100311.69
2022-09-28T13:55:29.303Z,100321.53
2022-09-28T13:58:01.900Z,100311.59
2022-09-28T14:00:37.209Z,100312.72
2022-09-28T14:03:15.083Z,100326.81
2022-09-28T14:05:49.086Z,100319.34
2022-09-28T14:08:36.451Z,100312.69
2022-09-28T14:11:49.980Z,100314.13
2022-09-28T14:14:49.009Z,100312.81
2022-09-28T14:17:54.266Z,100323.41
2022-09-28T14:20:29.230Z,100328.47
2022-09-28T14:23:31.221Z,100319.47
2022-09-28T14:26:23.298Z,100311.69
2022-09-28T14:29:09.986Z,100311.66
2022-09-28T14:31:43.662Z,100303.16
2022-09-28T14:34:36.231Z,100292.84
2022-09-28T14:37:25.503Z,100310.16
2022-09-28T14:40:13.031Z,100304.94
2022-09-28T14:42:42.801Z,100312.78
2022-09-28T14:45:38.522Z,100310.50
2022-09-28T14:48:22.504Z,100324.47
2022-09-28T14:50:55.800Z,100326.81
2022-09-28T14:53:25.942Z,100312.88
2022-09-28T14:55:58.861Z,100327.84
2022-09-28T14:58:29.936Z,100323.06
2022-09-28T15:01:03.740Z,100306.31
2022-09-28T15:03:35.383Z,100317.66
2022-09-28T15:06:04.718Z,100328.56
2022-09-28T15:08:41.471Z,100319.56
2022-09-28T15:11:15.927Z,100321.66
2022-09-28T15:13:44.734Z,100313.34
2022-09-28T15:16:16.917Z,100318.47
2022-09-28T15:19:10.580Z,100316.91
2022-09-28T15:21:42.018Z,100319.44
2022-09-28T15:24:29.021Z,100312.41
2022-09-28T15:26:57.206Z,100306.72
2022-09-28T15:29:25.810Z,100313.03
2022-09-28T15:31:55.489Z,100315.34
2022-09-28T15:34:51.112Z,100317.88
2022-09-28T15:37:25.944Z,100312.50
2022-09-28T15:39:57.501Z,100301.19
2022-09-28T15:42:25.850Z,100308.81
2022-09-28T15:45:37.362Z,100319.00
2022-09-28T15:48:31.075Z,100320.66
2022-09-28T15:51:10.310Z,100320.34
2022-09-28T15:53:43.542Z,100326.75
2022-09-28T15:56:12.417Z,100324.13
2022-09-28T15:58:40.974Z,100327.47
2022-09-28T16:01:38.160Z,100322.19
2022-09-28T16:04:38.589Z,100327.94
2022-09-28T16:07:25.667Z,100330.03
2022-09-28T16:10:01.144Z,100344.00
2022-09-28T16:12:41.676Z,100337.56
2022-09-28T16:15:14.958Z,100336.19
2022-09-28T16:17:50.067Z,100334.69
2022-09-28T16:20:27.068Z,100345.34
2022-09-28T16:23:01.394Z,100335.53
2022-09-28T16:25:30.608Z,100328.06
2022-09-28T16:28:01.340Z,100327.78
2022-09-28T16:30:34.590Z,100327.41
2022-09-28T16:33:06.791Z,100335.44
2022-09-28T16:35:51.334Z,100319.00
2022-09-28T16:38:21.849Z,100326.66
2022-09-28T16:40:55.526Z,100339.91
2022-09-28T16:43:27.265Z,100337.84
2022-09-28T16:45:57.771Z,100336.19
2022-09-28T16:48:27.085Z,100344.56
2022-09-28T16:50:54.911Z,100348.84
2022-09-28T16:53:42.032Z,100345.56
2022-09-28T16:56:14.350Z,100345.75
2022-09-28T16:58:42.524Z,100345.47
2022-09-28T17:01:14.809Z,100349.88
2022-09-28T17:03:46.909Z,100332.16
2022-09-28T17:06:16.111Z,100331.13
2022-09-28T17:08:44.225Z,100337.84
2022-09-28T17:11:18.151Z,100337.09
2022-09-28T17:13:50.684Z,100336.72
2022-09-28T17:16:32.293Z,100337.91
2022-09-28T17:19:19.161Z,100340.13
2022-09-28T17:21:47.307Z,100344.16
2022-09-28T17:24:15.456Z,100338.13
2022-09-28T17:26:47.696Z,100339.66
2022-09-28T17:29:16.401Z,100326.31
2022-09-28T17:31:45.284Z,100344.50
2022-09-28T17:34:19.150Z,100336.09
2022-09-28T17:36:47.995Z,100340.66
2022-09-28T17:39:18.523Z,100345.56
2022-09-28T17:41:48.028Z,100349.13
2022-09-28T17:44:18.974Z,100336.31
2022-09-28T17:46:49.668Z,100340.78
2022-09-28T17:49:18.764Z,100339.38
2022-09-28T17:51:46.753Z,100322.19
2022-09-28T17:54:18.719Z,100331.09
2022-09-28T17:56:50.134Z,100332.81
2022-09-28T17:59:21.915Z,100335.09
2022-09-28T18:01:49.882Z,100324.41
2022-09-28T18:04:40.162Z,100334.66
2022-09-28T18:07:08.662Z,100324.03
2022-09-28T18:09:38.915Z,100335.25
2022-09-28T18:12:08.624Z,100338.19
2022-09-28T18:14:38.978Z,100326.91
2022-09-28T18:17:08.967Z,100331.53
2022-09-28T18:19:37.041Z,100320.38
2022-09-28T18:22:07.026Z,100346.91
2022-09-28T18:24:38.321Z,100320.13
2022-09-28T18:27:06.377Z,100332.34
2022-09-28T18:29:37.964Z,100333.75
2022-09-28T18:32:08.084Z,100332.25
2022-09-28T18:34:37.689Z,100351.78
2022-09-28T18:37:08.695Z,100338.44
2022-09-28T18:39:40.223Z,100349.06
2022-09-28T18:42:08.655Z,100345.53
2022-09-28T18:44:40.590Z,100332.75
2022-09-28T18:47:15.107Z,100343.75
2022-09-28T18:49:46.565Z,100333.84
2022-09-28T18:52:17.186Z,100342.03
2022-09-28T18:54:46.889Z,100323.69
2022-09-28T18:57:15.284Z,100323.38
2022-09-28T18:59:49.770Z,100325.22
2022-09-28T19:02:18.541Z,100329.28
2022-09-28T19:04:48.747Z,100325.91
2022-09-28T19:07:19.140Z,100341.41
2022-09-28T19:09:48.040Z,100341.16
2022-09-28T19:12:19.101Z,100341.50
2022-09-28T19:14:50.528Z,100342.94
2022-09-28T19:17:18.921Z,100342.84
2022-09-28T19:19:47.164Z,100344.78
2022-09-28T19:22:17.180Z,100343.28
2022-09-28T19:24:45.221Z,100343.28
2022-09-28T19:27:17.249Z,100338.91
2022-09-28T19:29:47.095Z,100340.72
2022-09-28T19:32:16.499Z,100341.50
2022-09-28T19:34:44.400Z,100339.22
2022-09-28T19:37:14.432Z,100340.38
2022-09-28T19:39:45.447Z,100341.91
2022-09-28T19:42:13.274Z,100338.22
2022-09-28T19:44:41.127Z,100339.34
2022-09-28T19:47:12.462Z,100334.94
2022-09-28T19:49:43.858Z,100343.47
2022-09-28T19:52:17.137Z,100344.28
2022-09-28T19:54:54.015Z,100333.94
2022-09-28T19:57:22.652Z,100337.53
2022-09-28T19:59:52.694Z,100339.22
2022-09-28T20:02:23.805Z,100328.44
2022-09-28T20:04:54.876Z,100338.47
2022-09-28T20:07:23.113Z,100328.84
2022-09-28T20:10:59.921Z,100330.66
2022-09-28T20:13:32.476Z,100330.84
2022-09-28T20:16:05.672Z,100328.59
2022-09-28T20:18:36.023Z,100327.16
2022-09-28T20:21:09.597Z,100333.88
2022-09-28T20:23:37.416Z,100330.19
2022-09-28T20:26:06.123Z,100328.28
2022-09-28T20:28:34.516Z,100335.03
2022-09-28T20:31:03.418Z,100328.38
2022-09-28T20:33:32.811Z,100335.72
2022-09-28T20:36:07.671Z,100331.59
2022-09-28T20:38:38.303Z,100332.44
2022-09-28T20:41:07.120Z,100323.38
2022-09-28T20:43:35.410Z,100326.38
2022-09-28T20:46:04.517Z,100323.81
2022-09-28T20:48:33.011Z,100328.28
2022-09-28T20:51:05.042Z,100327.69
2022-09-28T20:53:36.918Z,100334.34
2022-09-28T20:56:07.220Z,100336.63
2022-09-28T20:58:35.293Z,100333.97
2022-09-28T21:01:09.817Z,100322.94
2022-09-28T21:03:38.282Z,100327.19
2022-09-28T21:06:12.138Z,100334.50
2022-09-28T21:08:43.464Z,100330.44
2022-09-28T21:11:14.018Z,100326.16
2022-09-28T21:13:42.826Z,100334.13
2022-09-28T21:16:13.709Z,100321.84
2022-09-28T21:18:43.986Z,100328.97
2022-09-28T21:21:16.534Z,100319.03
2022-09-28T21:23:48.277Z,100323.84
2022-09-28T21:26:26.576Z,100328.38
2022-09-28T21:28:54.993Z,100333.81
2022-09-28T21:31:29.114Z,100333.28
2022-09-28T21:33:59.954Z,100333.34
2022-09-28T21:36:29.794Z,100339.63
2022-09-28T21:38:59.094Z,100335.59
2022-09-28T21:41:27.105Z,100343.25
2022-09-28T21:43:57.295Z,100330.78
2022-09-28T21:46:25.191Z,100332.16
2022-09-28T21:48:55.955Z,100337.88
2022-09-28T21:51:25.873Z,100340.66
2022-09-28T21:53:54.172Z,100326.72
2022-09-28T21:56:26.071Z,100336.09
2022-09-28T21:58:56.030Z,100337.06
2022-09-28T22:01:26.128Z,100339.09
2022-09-28T22:03:57.770Z,100344.34
2022-09-28T22:06:29.032Z,100345.28
2022-09-28T22:08:57.486Z,100344.88
2022-09-28T22:11:32.185Z,100345.63
2022-09-28T22:14:02.075Z,100339.06
2022-09-28T22:16:31.765Z,100345.97
2022-09-28T22:19:02.441Z,100331.75
2022-09-28T22:21:34.652Z,100338.91
2022-09-28T22:24:06.911Z,100333.00
2022-09-28T22:26:39.477Z,100340.56
2022-09-28T22:29:11.882Z,100339.22
2022-09-28T22:31:42.094Z,100344.88
2022-09-28T22:34:10.911Z,100358.84
2022-09-28T22:36:41.000Z,100351.34
2022-09-28T22:39:08.799Z,100343.78
2022-09-28T22:41:39.965Z,100342.25
2022-09-28T22:44:10.170Z,100343.19
2022-09-28T22:46:37.995Z,100332.66
2022-09-28T22:49:05.994Z,100314.13
2022-09-28T22:51:37.999Z,100311.84
2022-09-28T22:54:06.709Z,100314.31
2022-09-28T22:56:34.512Z,100320.94
2022-09-28T22:59:09.981Z,100319.53
2022-09-28T23:01:37.894Z,100314.53
2022-09-28T23:04:07.800Z,100334.13
2022-09-28T23:06:37.610Z,100322.81
2022-09-28T23:09:05.767Z,100322.66
2022-09-28T23:11:35.722Z,100342.72
2022-09-28T23:14:05.005Z,100328.84
2022-09-28T23:16:32.847Z,100327.16
2022-09-28T23:19:02.833Z,100328.50
2022-09-28T23:21:33.228Z,100317.41
2022-09-28T23:24:02.069Z,100318.50
2022-09-28T23:26:36.351Z,100326.91
2022-09-28T23:29:05.778Z,100333.81
2022-09-28T23:31:35.801Z,100338.66
2022-09-28T23:34:07.973Z,100345.41
2022-09-28T23:36:35.888Z,100329.91
2022-09-28T23:39:05.844Z,100321.16
2022-09-28T23:41:35.435Z,100324.72
2022-09-28T23:44:04.961Z,100327.47
2022-09-28T23:46:35.004Z,100319.41
2022-09-28T23:49:03.070Z,100309.22
2022-09-28T23:51:31.107Z,100312.44
2022-09-28T23:54:04.472Z,100320.47
2022-09-28T23:56:32.288Z,100314.16
2022-09-28T23:59:00.560Z,100314.50
